createdAt,value
2023-03-01T00:00:01.788Z,101785.88
2023-03-01T00:01:06.321Z,101784.19
2023-03-01T00:02:08.721Z,101778.78
2023-03-01T00:03:10.997Z,101780.63
2023-03-01T00:04:13.340Z,101777.06
2023-03-01T00:05:15.532Z,101778.06
2023-03-01T00:06:17.961Z,101782.59
2023-03-01T00:07:20.231Z,101783.59
2023-03-01T00:08:22.437Z,101794.41
2023-03-01T00:09:24.718Z,101786.41
2023-03-01T00:10:27.715Z,101791.13
2023-03-01T00:11:34.629Z,101789.25
2023-03-01T00:12:37.644Z,101790.25
2023-03-01T00:13:40.265Z,101783.16
2023-03-01T00:14:42.451Z,101780.56
2023-03-01T00:15:45.548Z,101778.88
2023-03-01T00:16:47.910Z,101778.00
2023-03-01T00:17:50.056Z,101780.84
2023-03-01T00:18:52.406Z,101778.13
2023-03-01T00:19:54.568Z,101783.69
2023-03-01T00:20:57.287Z,101774.72
2023-03-01T00:21:59.587Z,101773.00
2023-03-01T00:23:01.840Z,101778.56
2023-03-01T00:24:06.769Z,101770.56
2023-03-01T00:25:09.235Z,101766.16
2023-03-01T00:26:14.996Z,101770.84
2023-03-01T00:27:17.530Z,101770.22
2023-03-01T00:28:20.372Z,101778.34
2023-03-01T00:29:24.544Z,101775.78
2023-03-01T00:30:27.438Z,101775.91
2023-03-01T00:31:33.563Z,101783.13
2023-03-01T00:32:35.826Z,101781.56
2023-03-01T00:33:38.418Z,101777.16
2023-03-01T00:34:41.022Z,101785.41
2023-03-01T00:35:43.467Z,101772.88
2023-03-01T00:36:46.275Z,101766.59
2023-03-01T00:37:58.974Z,101774.00
2023-03-01T00:39:02.936Z,101773.13
2023-03-01T00:40:07.302Z,101773.25
2023-03-01T00:41:13.107Z,101774.16
2023-03-01T00:42:15.387Z,101773.41
2023-03-01T00:43:17.933Z,101769.84
2023-03-01T00:44:20.138Z,101773.53
2023-03-01T00:45:23.025Z,101767.25
2023-03-01T00:46:28.036Z,101772.81
2023-03-01T00:47:30.733Z,101772.94
2023-03-01T00:48:33.274Z,101768.53
2023-03-01T00:49:36.854Z,101770.38
2023-03-01T00:50:39.153Z,101776.75
2023-03-01T00:51:42.539Z,101765.13
2023-03-01T00:52:44.979Z,101759.81
2023-03-01T00:53:47.529Z,101755.44
2023-03-01T00:54:51.059Z,101760.94
2023-03-01T00:55:53.198Z,101753.72
2023-03-01T00:56:55.387Z,101752.00
2023-03-01T00:57:57.632Z,101758.38
2023-03-01T00:58:59.880Z,101750.28
2023-03-01T01:00:02.158Z,101752.97
2023-03-01T01:01:18.420Z,101753.09
2023-03-01T01:02:21.407Z,101750.53
2023-03-01T01:03:26.201Z,101747.84
2023-03-01T01:04:28.819Z,101755.09
2023-03-01T01:05:31.887Z,101755.09
2023-03-01T01:06:43.938Z,101756.09
2023-03-01T01:07:46.142Z,101755.22
2023-03-01T01:08:49.534Z,101759.03
2023-03-01T01:09:52.068Z,101752.78
2023-03-01T01:10:55.709Z,101757.34
2023-03-01T01:11:57.953Z,101747.50
2023-03-01T01:13:02.764Z,101758.44
2023-03-01T01:14:05.017Z,101757.56
2023-03-01T01:15:07.781Z,101761.16
2023-03-01T01:16:10.343Z,101755.00
2023-03-01T01:17:13.708Z,101757.72
2023-03-01T01:18:16.453Z,101754.16
2023-03-01T01:19:18.650Z,101757.84
2023-03-01T01:20:20.807Z,101751.72
2023-03-01T01:21:26.140Z,101754.41
2023-03-01T01:22:28.962Z,101754.41
2023-03-01T01:23:32.554Z,101753.56
2023-03-01T01:24:34.796Z,101753.81
2023-03-01T01:25:37.966Z,101753.81
2023-03-01T01:26:40.137Z,101756.50
2023-03-01T01:27:42.325Z,101757.50
2023-03-01T01:28:45.248Z,101749.41
2023-03-01T01:29:48.547Z,101743.28
2023-03-01T01:30:50.740Z,101751.38
2023-03-01T01:31:53.079Z,101745.28
2023-03-01T01:32:56.018Z,101740.72
2023-03-01T01:34:00.538Z,101740.72
2023-03-01T01:35:02.792Z,101738.84
2023-03-01T01:36:06.642Z,101739.88
2023-03-01T01:37:10.204Z,101735.44
2023-03-01T01:38:12.521Z,101738.16
2023-03-01T01:39:14.746Z,101736.44
2023-03-01T01:40:19.602Z,101736.44
2023-03-01T01:41:23.370Z,101734.72
2023-03-01T01:42:25.627Z,101732.00
2023-03-01T01:43:32.501Z,101734.72
2023-03-01T01:44:34.950Z,101727.59
2023-03-01T01:45:37.755Z,101739.41
2023-03-01T01:47:05.147Z,101740.38
2023-03-01T01:48:41.354Z,101730.69
2023-03-01T01:49:48.569Z,101736.22
2023-03-01T01:51:03.908Z,101728.13
2023-03-01T01:52:10.647Z,101729.25
2023-03-01T01:53:17.491Z,101739.16
2023-03-01T01:54:25.032Z,101742.84
2023-03-01T01:55:31.653Z,101741.16
2023-03-01T01:56:38.085Z,101740.28
2023-03-01T01:57:48.465Z,101735.03
2023-03-01T01:58:51.365Z,101737.84
2023-03-01T01:59:59.247Z,101728.88
2023-03-01T02:01:02.773Z,101723.63
2023-03-01T02:02:06.469Z,101735.41
2023-03-01T02:03:18.490Z,101732.81
2023-03-01T02:04:22.072Z,101726.72
2023-03-01T02:05:36.384Z,101730.25
2023-03-01T02:06:45.885Z,101730.41
2023-03-01T02:07:49.373Z,101724.25
2023-03-01T02:09:03.042Z,101726.13
2023-03-01T02:10:06.199Z,101728.81
2023-03-01T02:11:09.868Z,101723.56
2023-03-01T02:12:13.904Z,101723.69
2023-03-01T02:13:16.572Z,101722.81
2023-03-01T02:14:19.469Z,101721.09
2023-03-01T02:15:21.691Z,101719.50
2023-03-01T02:16:24.708Z,101716.81
2023-03-01T02:17:28.112Z,101722.19
2023-03-01T02:18:30.809Z,101718.78
2023-03-01T02:20:02.311Z,101720.50
2023-03-01T02:21:39.551Z,101714.50
2023-03-01T02:22:46.106Z,101712.78
2023-03-01T02:23:48.465Z,101711.94
2023-03-01T02:25:09.818Z,101711.94
2023-03-01T02:26:43.878Z,101714.03
2023-03-01T02:28:19.471Z,101716.72
2023-03-01T02:29:24.150Z,101713.28
2023-03-01T02:30:26.920Z,101716.00
2023-03-01T02:31:44.105Z,101711.59
2023-03-01T02:32:49.448Z,101705.34
2023-03-01T02:33:54.226Z,101705.47
2023-03-01T02:34:57.452Z,101703.75
2023-03-01T02:36:09.451Z,101705.59
2023-03-01T02:37:21.638Z,101706.56
2023-03-01T02:38:24.912Z,101698.75
2023-03-01T02:39:38.057Z,101698.63
2023-03-01T02:40:41.858Z,101696.06
2023-03-01T02:41:49.036Z,101696.91
2023-03-01T02:42:55.736Z,101695.19
2023-03-01T02:43:58.128Z,101697.88
2023-03-01T02:45:00.330Z,101689.91
2023-03-01T02:46:15.726Z,101698.84
2023-03-01T02:47:18.436Z,101685.50
2023-03-01T02:48:21.152Z,101687.34
2023-03-01T02:49:31.623Z,101690.06
2023-03-01T02:51:06.986Z,101689.19
2023-03-01T02:52:51.011Z,101692.88
2023-03-01T02:54:29.291Z,101687.59
2023-03-01T02:55:31.598Z,101691.28
2023-03-01T02:56:33.983Z,101688.69
2023-03-01T02:57:39.442Z,101691.41
2023-03-01T02:58:46.770Z,101693.38
2023-03-01T02:59:52.466Z,101696.06
2023-03-01T03:00:55.107Z,101695.22
2023-03-01T03:01:57.877Z,101695.22
2023-03-01T03:03:00.443Z,101698.91
2023-03-01T03:04:08.591Z,101696.34
2023-03-01T03:05:15.045Z,101700.84
2023-03-01T03:06:17.722Z,101701.72
2023-03-01T03:07:20.146Z,101697.31
2023-03-01T03:08:27.457Z,101696.56
2023-03-01T03:09:29.676Z,101688.63
2023-03-01T03:10:36.453Z,101692.16
2023-03-01T03:11:41.982Z,101689.47
2023-03-01T03:12:44.377Z,101686.75
2023-03-01T03:13:49.196Z,101694.00
2023-03-01T03:14:52.248Z,101689.59
2023-03-01T03:15:57.024Z,101694.00
2023-03-01T03:16:59.346Z,101679.69
2023-03-01T03:18:01.627Z,101677.09
2023-03-01T03:19:06.389Z,101680.78
2023-03-01T03:20:13.661Z,101676.38
2023-03-01T03:21:16.402Z,101679.22
2023-03-01T03:22:18.712Z,101675.63
2023-03-01T03:23:22.524Z,101675.63
2023-03-01T03:24:24.747Z,101674.66
2023-03-01T03:25:28.603Z,101672.94
2023-03-01T03:26:31.340Z,101678.34
2023-03-01T03:27:33.655Z,101683.84
2023-03-01T03:28:36.378Z,101675.75
2023-03-01T03:29:38.576Z,101678.47
2023-03-01T03:30:41.967Z,101676.75
2023-03-01T03:31:44.250Z,101672.47
2023-03-01T03:32:53.388Z,101675.16
2023-03-01T03:33:55.804Z,101679.56
2023-03-01T03:34:57.935Z,101669.91
2023-03-01T03:36:00.217Z,101681.53
2023-03-01T03:37:02.419Z,101679.84
2023-03-01T03:38:12.617Z,101686.19
2023-03-01T03:39:14.792Z,101676.38
2023-03-01T03:40:18.442Z,101674.69
2023-03-01T03:41:21.421Z,101672.84
2023-03-01T03:42:24.833Z,101668.44
2023-03-01T03:43:27.038Z,101663.19
2023-03-01T03:44:29.438Z,101666.84
2023-03-01T03:45:34.603Z,101665.13
2023-03-01T03:46:38.673Z,101664.28
2023-03-01T03:47:40.789Z,101667.13
2023-03-01T03:48:45.311Z,101654.63
2023-03-01T03:49:47.531Z,101663.66
2023-03-01T03:50:56.349Z,101669.06
2023-03-01T03:51:58.599Z,101658.53
2023-03-01T03:53:05.760Z,101665.75
2023-03-01T03:54:07.963Z,101663.19
2023-03-01T03:55:12.858Z,101670.44
2023-03-01T03:56:16.408Z,101668.56
2023-03-01T03:57:18.629Z,101666.16
2023-03-01T03:58:23.277Z,101664.28
2023-03-01T03:59:25.573Z,101666.16
2023-03-01T04:00:27.830Z,101661.72
2023-03-01T04:01:30.056Z,101664.44
2023-03-01T04:02:32.704Z,101661.00
2023-03-01T04:03:36.309Z,101663.69
2023-03-01T04:04:38.585Z,101673.75
2023-03-01T04:05:41.916Z,101666.63
2023-03-01T04:06:44.098Z,101666.63
2023-03-01T04:07:46.712Z,101676.56
2023-03-01T04:08:52.166Z,101676.66
2023-03-01T04:09:54.306Z,101675.81
2023-03-01T04:11:21.778Z,101677.66
2023-03-01T04:12:24.235Z,101677.78
2023-03-01T04:13:26.587Z,101676.94
2023-03-01T04:14:28.836Z,101681.56
2023-03-01T04:15:32.028Z,101677.06
2023-03-01T04:16:34.462Z,101680.72
2023-03-01T04:17:39.849Z,101684.38
2023-03-01T04:18:42.087Z,101688.06
2023-03-01T04:19:45.178Z,101681.81
2023-03-01T04:20:49.633Z,101684.66
2023-03-01T04:21:53.169Z,101683.78
2023-03-01T04:23:21.238Z,101683.78
2023-03-01T04:24:24.024Z,101683.06
2023-03-01T04:25:26.551Z,101675.81
2023-03-01T04:26:29.345Z,101680.50
2023-03-01T04:27:31.708Z,101679.63
2023-03-01T04:28:37.624Z,101677.78
2023-03-01T04:29:40.384Z,101674.34
2023-03-01T04:30:42.614Z,101678.03
2023-03-01T04:31:49.231Z,101674.34
2023-03-01T04:32:51.519Z,101676.22
2023-03-01T04:33:58.760Z,101678.03
2023-03-01T04:35:01.644Z,101675.47
2023-03-01T04:36:06.490Z,101676.31
2023-03-01T04:37:12.410Z,101670.06
2023-03-01T04:38:14.585Z,101665.78
2023-03-01T04:39:17.547Z,101667.50
2023-03-01T04:40:19.871Z,101671.03
2023-03-01T04:41:23.969Z,101662.13
2023-03-01T04:42:26.234Z,101662.25
2023-03-01T04:43:28.494Z,101669.34
2023-03-01T04:44:31.974Z,101662.25
2023-03-01T04:45:35.531Z,101673.88
2023-03-01T04:46:38.119Z,101674.00
2023-03-01T04:47:41.918Z,101674.00
2023-03-01T04:48:46.189Z,101669.59
2023-03-01T04:49:48.366Z,101674.13
2023-03-01T04:50:50.826Z,101672.41
2023-03-01T04:51:53.042Z,101673.38
2023-03-01T04:53:01.040Z,101673.38
2023-03-01T04:54:03.303Z,101673.38
2023-03-01T04:55:07.130Z,101674.34
2023-03-01T04:56:09.736Z,101682.44
2023-03-01T04:57:11.944Z,101674.47
2023-03-01T04:58:14.153Z,101672.66
2023-03-01T04:59:16.782Z,101667.38
2023-03-01T05:00:39.365Z,101670.06
2023-03-01T05:01:43.986Z,101670.19
2023-03-01T05:02:55.545Z,101671.91
2023-03-01T05:04:04.279Z,101671.16
2023-03-01T05:05:06.967Z,101676.56
2023-03-01T05:06:09.206Z,101673.00
2023-03-01T05:07:14.128Z,101672.16
2023-03-01T05:08:19.793Z,101671.28
2023-03-01T05:09:23.229Z,101675.84
2023-03-01T05:10:26.983Z,101673.25
2023-03-01T05:11:32.945Z,101666.16
2023-03-01T05:12:35.198Z,101665.28
2023-03-01T05:13:39.084Z,101669.81
2023-03-01T05:14:41.900Z,101668.09
2023-03-01T05:15:44.118Z,101669.06
2023-03-01T05:16:46.339Z,101670.06
2023-03-01T05:17:49.955Z,101668.34
2023-03-01T05:18:52.095Z,101671.06
2023-03-01T05:19:56.646Z,101661.25
2023-03-01T05:21:11.741Z,101663.94
2023-03-01T05:22:13.889Z,101670.31
2023-03-01T05:23:16.050Z,101665.91
2023-03-01T05:24:18.258Z,101670.44
2023-03-01T05:25:22.520Z,101659.78
2023-03-01T05:26:29.714Z,101670.56
2023-03-01T05:27:32.189Z,101660.88
2023-03-01T05:28:34.895Z,101664.53
2023-03-01T05:29:37.438Z,101668.13
2023-03-01T05:30:40.198Z,101661.13
2023-03-01T05:31:42.373Z,101660.25
2023-03-01T05:32:46.944Z,101661.13
2023-03-01T05:33:49.128Z,101661.13
2023-03-01T05:34:53.305Z,101665.66
2023-03-01T05:35:55.516Z,101653.28
2023-03-01T05:36:58.365Z,101656.84
2023-03-01T05:38:00.608Z,101657.81
2023-03-01T05:39:03.476Z,101655.97
2023-03-01T05:40:06.650Z,101656.94
2023-03-01T05:41:16.001Z,101656.09
2023-03-01T05:42:18.186Z,101655.34
2023-03-01T05:43:20.380Z,101653.53
2023-03-01T05:44:23.008Z,101656.34
2023-03-01T05:45:28.068Z,101652.78
2023-03-01T05:46:30.869Z,101655.59
2023-03-01T05:47:33.322Z,101656.56
2023-03-01T05:48:36.670Z,101653.88
2023-03-01T05:49:39.836Z,101654.00
2023-03-01T05:50:44.425Z,101651.31
2023-03-01T05:51:51.114Z,101657.69
2023-03-01T05:52:59.449Z,101656.84
2023-03-01T05:54:03.496Z,101669.31
2023-03-01T05:55:06.594Z,101664.91
2023-03-01T05:56:08.983Z,101657.69
2023-03-01T05:57:11.542Z,101653.28
2023-03-01T05:58:17.867Z,101666.63
2023-03-01T05:59:20.482Z,101654.97
2023-03-01T06:00:25.665Z,101656.84
2023-03-01T06:01:28.086Z,101662.22
2023-03-01T06:02:31.429Z,101662.22
2023-03-01T06:03:33.933Z,101662.22
2023-03-01T06:04:36.158Z,101658.69
2023-03-01T06:05:38.506Z,101668.44
2023-03-01T06:06:40.750Z,101664.91
2023-03-01T06:07:43.177Z,101671.25
2023-03-01T06:08:45.408Z,101666.75
2023-03-01T06:09:47.667Z,101667.72
2023-03-01T06:10:49.983Z,101668.56
2023-03-01T06:11:52.289Z,101664.06
2023-03-01T06:12:54.876Z,101663.94
2023-03-01T06:13:57.200Z,101667.59
2023-03-01T06:15:00.321Z,101657.69
2023-03-01T06:16:05.916Z,101664.78
2023-03-01T06:17:08.126Z,101659.41
2023-03-01T06:18:10.998Z,101658.41
2023-03-01T06:19:13.187Z,101672.72
2023-03-01T06:20:19.018Z,101675.28
2023-03-01T06:21:21.223Z,101667.13
2023-03-01T06:22:23.480Z,101670.53
2023-03-01T06:23:26.369Z,101662.34
2023-03-01T06:24:29.872Z,101671.28
2023-03-01T06:25:32.075Z,101663.06
2023-03-01T06:26:35.360Z,101662.13
2023-03-01T06:27:37.841Z,101666.53
2023-03-01T06:28:40.022Z,101669.09
2023-03-01T06:29:42.781Z,101674.47
2023-03-01T06:30:45.414Z,101668.13
2023-03-01T06:31:49.633Z,101679.59
2023-03-01T06:32:52.550Z,101674.84
2023-03-01T06:33:55.121Z,101677.41
2023-03-01T06:34:57.345Z,101671.06
2023-03-01T06:35:59.524Z,101675.34
2023-03-01T06:37:06.241Z,101680.47
2023-03-01T06:38:10.318Z,101669.69
2023-03-01T06:39:12.547Z,101672.16
2023-03-01T06:40:16.421Z,101680.13
2023-03-01T06:41:18.670Z,101679.03
2023-03-01T06:42:20.970Z,101676.06
2023-03-01T06:43:25.784Z,101673.25
2023-03-01T06:44:31.080Z,101671.19
2023-03-01T06:45:33.538Z,101686.09
2023-03-01T06:46:35.818Z,101677.91
2023-03-01T06:47:39.190Z,101683.06
2023-03-01T06:48:41.948Z,101679.13
2023-03-01T06:49:44.114Z,101688.81
2023-03-01T06:50:46.291Z,101683.28
2023-03-01T06:51:48.466Z,101675.81
2023-03-01T06:52:56.815Z,101688.94
2023-03-01T06:54:01.314Z,101681.56
2023-03-01T06:55:06.203Z,101686.59
2023-03-01T06:56:08.517Z,101680.94
2023-03-01T06:57:10.687Z,101685.09
2023-03-01T06:58:14.269Z,101675.78
2023-03-01T06:59:17.659Z,101679.84
2023-03-01T07:00:21.323Z,101681.03
2023-03-01T07:01:23.905Z,101680.66
2023-03-01T07:02:26.137Z,101685.28
2023-03-01T07:03:28.608Z,101683.06
2023-03-01T07:04:31.700Z,101682.44
2023-03-01T07:05:34.530Z,101688.91
2023-03-01T07:06:36.799Z,101685.31
2023-03-01T07:07:39.551Z,101681.09
2023-03-01T07:08:41.800Z,101676.63
2023-03-01T07:09:44.037Z,101671.31
2023-03-01T07:10:46.362Z,101669.41
2023-03-01T07:11:48.871Z,101673.03
2023-03-01T07:12:51.076Z,101671.97
2023-03-01T07:13:53.277Z,101671.75
2023-03-01T07:14:55.436Z,101675.22
2023-03-01T07:15:57.613Z,101668.75
2023-03-01T07:17:00.267Z,101674.91
2023-03-01T07:18:02.956Z,101671.09
2023-03-01T07:19:06.408Z,101677.25
2023-03-01T07:20:09.449Z,101670.75
2023-03-01T07:21:14.066Z,101669.50
2023-03-01T07:22:16.282Z,101667.38
2023-03-01T07:23:19.868Z,101673.09
2023-03-01T07:24:22.115Z,101661.13
2023-03-01T07:25:24.340Z,101662.56
2023-03-01T07:26:26.627Z,101660.25
2023-03-01T07:27:28.893Z,101657.97
2023-03-01T07:28:31.923Z,101656.63
2023-03-01T07:29:34.310Z,101650.72
2023-03-01T07:30:36.541Z,101653.84
2023-03-01T07:31:38.856Z,101651.63
2023-03-01T07:32:41.167Z,101653.16
2023-03-01T07:33:43.375Z,101654.38
2023-03-01T07:34:45.691Z,101652.31
2023-03-01T07:35:48.959Z,101647.34
2023-03-01T07:36:52.011Z,101651.53
2023-03-01T07:37:57.506Z,101648.28
2023-03-01T07:38:59.817Z,101652.34
2023-03-01T07:40:02.027Z,101649.41
2023-03-01T07:41:04.929Z,101644.41
2023-03-01T07:42:07.109Z,101644.00
2023-03-01T07:43:09.317Z,101641.72
2023-03-01T07:44:11.915Z,101645.88
2023-03-01T07:45:14.650Z,101647.47
2023-03-01T07:46:17.290Z,101638.03
2023-03-01T07:47:19.472Z,101631.28
2023-03-01T07:48:21.754Z,101641.72
2023-03-01T07:49:24.046Z,101641.28
2023-03-01T07:50:26.260Z,101638.25
2023-03-01T07:51:28.411Z,101639.81
2023-03-01T07:52:31.861Z,101640.38
2023-03-01T07:53:35.275Z,101642.59
2023-03-01T07:54:37.528Z,101642.28
2023-03-01T07:55:39.707Z,101646.38
2023-03-01T07:56:41.907Z,101643.50
2023-03-01T07:57:44.345Z,101631.41
2023-03-01T07:58:48.697Z,101640.09
2023-03-01T07:59:51.950Z,101637.88
2023-03-01T08:00:55.095Z,101630.56
2023-03-01T08:01:57.971Z,101637.34
2023-03-01T08:03:01.957Z,101630.00
2023-03-01T08:04:05.847Z,101625.22
2023-03-01T08:05:08.457Z,101639.31
2023-03-01T08:06:12.896Z,101620.88
2023-03-01T08:07:15.452Z,101623.38
2023-03-01T08:08:19.521Z,101627.63
2023-03-01T08:09:23.067Z,101628.28
2023-03-01T08:10:25.380Z,101619.88
2023-03-01T08:11:30.726Z,101622.38
2023-03-01T08:12:33.350Z,101627.41
2023-03-01T08:13:36.996Z,101626.38
2023-03-01T08:14:41.185Z,101623.56
2023-03-01T08:15:45.453Z,101625.22
2023-03-01T08:16:52.826Z,101615.91
2023-03-01T08:17:56.281Z,101625.75
2023-03-01T08:19:01.709Z,101618.34
2023-03-01T08:20:07.519Z,101624.22
2023-03-01T08:21:14.407Z,101614.72
2023-03-01T08:22:16.955Z,101610.84
2023-03-01T08:23:19.176Z,101610.59
2023-03-01T08:24:24.036Z,101608.63
2023-03-01T08:25:26.255Z,101601.16
2023-03-01T08:26:29.487Z,101606.75
2023-03-01T08:27:33.371Z,101602.03
2023-03-01T08:28:37.166Z,101594.78
2023-03-01T08:29:39.277Z,101606.47
2023-03-01T08:30:41.482Z,101604.47
2023-03-01T08:31:44.185Z,101604.38
2023-03-01T08:32:46.573Z,101601.72
2023-03-01T08:33:57.043Z,101601.59
2023-03-01T08:34:59.344Z,101593.25
2023-03-01T08:36:07.971Z,101603.91
2023-03-01T08:37:10.887Z,101598.50
2023-03-01T08:38:13.102Z,101598.19
2023-03-01T08:39:17.781Z,101602.53
2023-03-01T08:40:20.023Z,101602.81
2023-03-01T08:41:23.889Z,101600.97
2023-03-01T08:42:26.102Z,101598.47
2023-03-01T08:43:28.446Z,101598.53
2023-03-01T08:44:30.663Z,101600.28
2023-03-01T08:45:32.964Z,101601.22
2023-03-01T08:46:38.657Z,101594.91
2023-03-01T08:47:40.908Z,101599.63
2023-03-01T08:48:44.343Z,101600.53
2023-03-01T08:49:46.509Z,101597.16
2023-03-01T08:50:48.719Z,101598.91
2023-03-01T08:51:50.917Z,101598.13
2023-03-01T08:52:53.070Z,101599.41
2023-03-01T08:53:55.251Z,101597.97
2023-03-01T08:54:57.966Z,101605.81
2023-03-01T08:56:04.220Z,101597.81
2023-03-01T08:57:07.947Z,101605.44
2023-03-01T08:58:10.121Z,101596.41
2023-03-01T08:59:13.460Z,101596.63
2023-03-01T09:00:16.120Z,101596.88
2023-03-01T09:01:21.175Z,101595.41
2023-03-01T09:02:23.793Z,101594.16
2023-03-01T09:03:28.383Z,101591.44
2023-03-01T09:04:32.332Z,101596.13
2023-03-01T09:05:35.395Z,101592.56
2023-03-01T09:06:37.691Z,101591.31
2023-03-01T09:07:39.918Z,101591.34
2023-03-01T09:08:44.769Z,101595.16
2023-03-01T09:09:49.444Z,101580.16
2023-03-01T09:10:51.716Z,101588.84
2023-03-01T09:11:53.929Z,101579.97
2023-03-01T09:12:56.100Z,101581.25
2023-03-01T09:13:58.342Z,101583.59
2023-03-01T09:15:00.639Z,101580.63
2023-03-01T09:16:05.644Z,101579.16
2023-03-01T09:17:07.925Z,101585.31
2023-03-01T09:18:10.360Z,101574.56
2023-03-01T09:19:12.652Z,101575.00
2023-03-01T09:20:14.964Z,101569.06
2023-03-01T09:21:39.158Z,101570.34
2023-03-01T09:22:42.317Z,101568.03
2023-03-01T09:23:48.740Z,101565.72
2023-03-01T09:24:51.142Z,101565.50
2023-03-01T09:25:53.912Z,101556.81
2023-03-01T09:26:57.279Z,101560.22
2023-03-01T09:27:59.407Z,101553.44
2023-03-01T09:29:01.627Z,101550.91
2023-03-01T09:30:04.149Z,101549.88
2023-03-01T09:31:06.837Z,101546.69
2023-03-01T09:32:09.454Z,101544.38
2023-03-01T09:33:15.645Z,101536.50
2023-03-01T09:34:24.188Z,101543.09
2023-03-01T09:35:26.384Z,101544.13
2023-03-01T09:36:28.801Z,101542.63
2023-03-01T09:37:34.353Z,101542.84
2023-03-01T09:38:36.903Z,101555.34
2023-03-01T09:39:39.045Z,101543.91
2023-03-01T09:40:47.321Z,101548.75
2023-03-01T09:42:05.607Z,101545.38
2023-03-01T09:43:18.627Z,101548.34
2023-03-01T09:44:27.316Z,101543.88
2023-03-01T09:45:35.339Z,101548.75
2023-03-01T09:46:43.426Z,101543.63
2023-03-01T09:47:47.592Z,101538.31
2023-03-01T09:48:58.474Z,101540.44
2023-03-01T09:50:03.673Z,101539.78
2023-03-01T09:51:13.771Z,101541.66
2023-03-01T09:52:33.065Z,101539.75
2023-03-01T09:53:36.333Z,101548.63
2023-03-01T09:54:38.703Z,101550.09
2023-03-01T09:55:46.941Z,101542.03
2023-03-01T09:57:02.174Z,101543.69
2023-03-01T09:58:28.842Z,101543.06
2023-03-01T09:59:53.968Z,101549.16
2023-03-01T10:00:59.986Z,101540.91
2023-03-01T10:02:22.742Z,101542.38
2023-03-01T10:03:39.455Z,101543.84
2023-03-01T10:04:48.358Z,101549.75
2023-03-01T10:06:35.051Z,101533.00
2023-03-01T10:07:49.071Z,101535.56
2023-03-01T10:08:58.901Z,101530.66
2023-03-01T10:10:02.294Z,101535.94
2023-03-01T10:11:13.881Z,101535.75
2023-03-01T10:12:28.844Z,101533.38
2023-03-01T10:13:45.989Z,101540.81
2023-03-01T10:14:58.916Z,101540.13
2023-03-01T10:16:15.519Z,101537.56
2023-03-01T10:17:35.372Z,101542.00
2023-03-01T10:18:39.533Z,101539.25
2023-03-01T10:19:47.125Z,101539.66
2023-03-01T10:21:02.914Z,101542.41
2023-03-01T10:22:30.724Z,101543.25
2023-03-01T10:23:36.648Z,101533.06
2023-03-01T10:24:38.917Z,101539.19
2023-03-01T10:26:06.137Z,101534.31
2023-03-01T10:27:32.082Z,101537.06
2023-03-01T10:28:49.535Z,101539.38
2023-03-01T10:30:22.212Z,101528.13
2023-03-01T10:31:31.052Z,101532.34
2023-03-01T10:32:33.827Z,101532.16
2023-03-01T10:33:40.672Z,101525.94
2023-03-01T10:34:42.930Z,101532.94
2023-03-01T10:35:45.347Z,101524.00
2023-03-01T10:36:58.362Z,101528.44
2023-03-01T10:38:07.884Z,101522.47
2023-03-01T10:39:17.591Z,101519.47
2023-03-01T10:40:20.083Z,101517.34
2023-03-01T10:41:27.156Z,101516.25
2023-03-01T10:42:32.983Z,101513.31
2023-03-01T10:43:56.990Z,101513.91
2023-03-01T10:45:15.172Z,101514.97
2023-03-01T10:46:33.361Z,101511.38
2023-03-01T10:47:36.900Z,101520.72
2023-03-01T10:48:39.042Z,101510.53
2023-03-01T10:49:53.731Z,101514.38
2023-03-01T10:50:58.604Z,101516.50
2023-03-01T10:52:18.868Z,101505.47
2023-03-01T10:53:35.289Z,101507.38
2023-03-01T10:54:37.681Z,101501.25
2023-03-01T10:55:41.305Z,101500.19
2023-03-01T10:56:57.080Z,101490.59
2023-03-01T10:58:11.780Z,101492.53
2023-03-01T10:59:28.049Z,101490.59
2023-03-01T11:00:30.310Z,101488.69
2023-03-01T11:01:36.766Z,101489.31
2023-03-01T11:02:39.105Z,101487.63
2023-03-01T11:03:41.479Z,101483.81
2023-03-01T11:05:03.271Z,101485.50
2023-03-01T11:06:22.145Z,101481.88
2023-03-01T11:07:24.308Z,101486.31
2023-03-01T11:08:41.439Z,101491.59
2023-03-01T11:09:44.200Z,101482.72
2023-03-01T11:10:46.355Z,101476.34
2023-03-01T11:12:01.789Z,101484.84
2023-03-01T11:13:15.569Z,101481.28
2023-03-01T11:14:29.558Z,101478.94
2023-03-01T11:15:32.033Z,101479.41
2023-03-01T11:16:37.456Z,101471.38
2023-03-01T11:17:54.482Z,101479.63
2023-03-01T11:19:19.056Z,101479.41
2023-03-01T11:20:31.745Z,101473.28
2023-03-01T11:21:35.933Z,101477.72
2023-03-01T11:22:46.658Z,101480.47
2023-03-01T11:23:51.103Z,101471.38
2023-03-01T11:25:08.911Z,101474.75
2023-03-01T11:26:14.188Z,101474.94
2023-03-01T11:27:29.546Z,101471.13
2023-03-01T11:28:34.055Z,101474.13
2023-03-01T11:29:49.174Z,101476.06
2023-03-01T11:31:08.729Z,101467.53
2023-03-01T11:32:15.292Z,101469.66
2023-03-01T11:33:43.852Z,101473.28
2023-03-01T11:34:54.499Z,101477.34
2023-03-01T11:36:05.494Z,101465.06
2023-03-01T11:37:25.933Z,101471.03
2023-03-01T11:38:32.089Z,101476.13
2023-03-01T11:39:43.570Z,101475.72
2023-03-01T11:40:56.100Z,101476.44
2023-03-01T11:42:19.641Z,101465.00
2023-03-01T11:43:32.906Z,101465.06
2023-03-01T11:44:39.127Z,101467.63
2023-03-01T11:46:11.922Z,101468.75
2023-03-01T11:47:45.327Z,101464.09
2023-03-01T11:49:27.458Z,101462.69
2023-03-01T11:50:42.476Z,101463.75
2023-03-01T11:51:54.908Z,101469.53
2023-03-01T11:53:29.086Z,101465.97
2023-03-01T11:54:57.379Z,101463.47
2023-03-01T11:56:25.250Z,101448.91
2023-03-01T11:57:42.731Z,101450.00
2023-03-01T11:59:24.533Z,101458.50
2023-03-01T12:01:05.299Z,101451.13
2023-03-01T12:02:47.662Z,101449.25
2023-03-01T12:04:08.771Z,101439.31
2023-03-01T12:05:31.645Z,101444.44
2023-03-01T12:07:06.313Z,101446.97
2023-03-01T12:08:55.800Z,101445.09
2023-03-01T12:10:23.059Z,101432.63
2023-03-01T12:11:46.005Z,101440.91
2023-03-01T12:13:38.687Z,101430.34
2023-03-01T12:15:00.479Z,101436.06
2023-03-01T12:16:17.611Z,101437.53
2023-03-01T12:17:45.452Z,101425.91
2023-03-01T12:18:50.297Z,101440.53
2023-03-01T12:20:23.445Z,101434.81
2023-03-01T12:22:00.457Z,101429.94
2023-03-01T12:23:27.944Z,101428.44
2023-03-01T12:24:57.848Z,101425.69
2023-03-01T12:26:06.792Z,101426.53
2023-03-01T12:27:40.217Z,101433.91
2023-03-01T12:28:53.158Z,101427.56
2023-03-01T12:30:10.782Z,101422.69
2023-03-01T12:31:35.929Z,101427.75
2023-03-01T12:32:56.830Z,101427.09
2023-03-01T12:34:20.889Z,101427.28
2023-03-01T12:35:32.748Z,101426.66
2023-03-01T12:37:03.731Z,101423.66
2023-03-01T12:38:27.012Z,101417.94
2023-03-01T12:40:05.846Z,101416.84
2023-03-01T12:41:44.860Z,101419.56
2023-03-01T12:43:15.443Z,101407.53